sensor_id;sensor_type;location;lat;lon;timestamp;P1;durP1;ratioP1;P2;durP2;ratioP2
64966;SDS011;51710;38.732;-121.358;2022-09-28T00:01:07;1.10;;;0.70;;
64966;SDS011;51710;38.732;-121.358;2022-09-28T00:03:35;2.45;;;0.90;;
64966;SDS011;51710;38.732;-121.358;2022-09-28T00:06:02;1.05;;;0.70;;
64966;SDS011;51710;38.732;-121.358;2022-09-28T00:08:30;1.85;;;1.15;;
64966;SDS011;51710;38.732;-121.358;2022-09-28T00:10:57;2.97;;;0.90;;
64966;SDS011;51710;38.732;-121.358;2022-09-28T00:13:24;2.33;;;0.80;;
64966;SDS011;51710;38.732;-121.358;2022-09-28T00:16:00;1.80;;;0.90;;
64966;SDS011;51710;38.732;-121.358;2022-09-28T00:18:28;0.60;;;0.60;;
64966;SDS011;51710;38.732;-121.358;2022-09-28T00:21:02;2.03;;;0.60;;
64966;SDS011;51710;38.732;-121.358;2022-09-28T00:23:31;0.80;;;0.60;;
64966;SDS011;51710;38.732;-121.358;2022-09-28T00:26:04;2.78;;;0.80;;
64966;SDS011;51710;38.732;-121.358;2022-09-28T00:28:30;2.53;;;0.80;;
64966;SDS011;51710;38.732;-121.358;2022-09-28T00:30:57;1.25;;;0.82;;
64966;SDS011;51710;38.732;-121.358;2022-09-28T00:33:23;1.35;;;0.90;;
64966;SDS011;51710;38.732;-121.358;2022-09-28T00:35:54;1.58;;;0.80;;
64966;SDS011;51710;38.732;-121.358;2022-09-28T00:38:24;1.88;;;0.80;;
64966;SDS011;51710;38.732;-121.358;2022-09-28T00:40:51;2.08;;;1.05;;
64966;SDS011;51710;38.732;-121.358;2022-09-28T00:43:20;3.47;;;0.85;;
64966;SDS011;51710;38.732;-121.358;2022-09-28T00:48:53;3.15;;;0.90;;
64966;SDS011;51710;38.732;-121.358;2022-09-28T00:51:27;1.80;;;0.80;;
64966;SDS011;51710;38.732;-121.358;2022-09-28T00:53:57;3.38;;;0.98;;
64966;SDS011;51710;38.732;-121.358;2022-09-28T00:56:26;2.05;;;1.00;;
64966;SDS011;51710;38.732;-121.358;2022-09-28T00:58:54;1.85;;;0.80;;
64966;SDS011;51710;38.732;-121.358;2022-09-28T01:01:23;1.38;;;0.85;;
64966;SDS011;51710;38.732;-121.358;2022-09-28T01:03:51;1.95;;;0.82;;
64966;SDS011;51710;38.732;-121.358;2022-09-28T01:06:20;3.33;;;1.00;;
64966;SDS011;51710;38.732;-121.358;2022-09-28T01:08:48;2.33;;;0.80;;
64966;SDS011;51710;38.732;-121.358;2022-09-28T01:11:17;2.35;;;0.85;;
64966;SDS011;51710;38.732;-121.358;2022-09-28T01:13:45;2.05;;;0.85;;
64966;SDS011;51710;38.732;-121.358;2022-09-28T01:16:18;1.25;;;0.85;;
64966;SDS011;51710;38.732;-121.358;2022-09-28T01:24:41;1.77;;;0.90;;
64966;SDS011;51710;38.732;-121.358;2022-09-28T01:27:27;3.17;;;1.15;;
64966;SDS011;51710;38.732;-121.358;2022-09-28T01:40:38;3.63;;;1.40;;
64966;SDS011;51710;38.732;-121.358;2022-09-28T01:43:09;2.38;;;0.90;;
64966;SDS011;51710;38.732;-121.358;2022-09-28T01:45:44;1.35;;;0.90;;
64966;SDS011;51710;38.732;-121.358;2022-09-28T01:48:18;1.95;;;0.90;;
64966;SDS011;51710;38.732;-121.358;2022-09-28T01:50:58;1.98;;;0.90;;
64966;SDS011;51710;38.732;-121.358;2022-09-28T01:56:06;1.35;;;1.00;;
64966;SDS011;51710;38.732;-121.358;2022-09-28T01:58:44;1.75;;;0.93;;
64966;SDS011;51710;38.732;-121.358;2022-09-28T02:01:36;3.15;;;0.98;;
64966;SDS011;51710;38.732;-121.358;2022-09-28T02:04:11;1.70;;;0.88;;
64966;SDS011;51710;38.732;-121.358;2022-09-28T02:09:31;4.35;;;1.20;;
64966;SDS011;51710;38.732;-121.358;2022-09-28T02:12:08;1.38;;;0.90;;
64966;SDS011;51710;38.732;-121.358;2022-09-28T02:14:42;2.47;;;1.15;;
64966;SDS011;51710;38.732;-121.358;2022-09-28T02:17:12;2.10;;;1.10;;
64966;SDS011;51710;38.732;-121.358;2022-09-28T02:19:40;2.47;;;1.00;;
64966;SDS011;51710;38.732;-121.358;2022-09-28T02:25:05;2.55;;;1.40;;
64966;SDS011;51710;38.732;-121.358;2022-09-28T02:27:42;3.03;;;1.35;;
64966;SDS011;51710;38.732;-121.358;2022-09-28T02:30:16;1.73;;;1.00;;
64966;SDS011;51710;38.732;-121.358;2022-09-28T02:32:44;4.93;;;1.15;;
64966;SDS011;51710;38.732;-121.358;2022-09-28T02:35:15;5.03;;;1.85;;
64966;SDS011;51710;38.732;-121.358;2022-09-28T02:37:42;2.05;;;1.13;;
64966;SDS011;51710;38.732;-121.358;2022-09-28T02:40:21;1.75;;;1.17;;
64966;SDS011;51710;38.732;-121.358;2022-09-28T02:45:35;3.67;;;1.30;;
64966;SDS011;51710;38.732;-121.358;2022-09-28T02:51:06;1.30;;;1.02;;
64966;SDS011;51710;38.732;-121.358;2022-09-28T02:56:54;1.60;;;1.00;;
64966;SDS011;51710;38.732;-121.358;2022-09-28T02:59:49;1.88;;;1.02;;
64966;SDS011;51710;38.732;-121.358;2022-09-28T03:02:34;4.28;;;1.40;;
64966;SDS011;51710;38.732;-121.358;2022-09-28T03:08:37;1.88;;;1.20;;
64966;SDS011;51710;38.732;-121.358;2022-09-28T03:11:08;2.03;;;1.10;;
64966;SDS011;51710;38.732;-121.358;2022-09-28T03:13:42;3.28;;;1.38;;
64966;SDS011;51710;38.732;-121.358;2022-09-28T03:16:13;2.47;;;1.40;;
64966;SDS011;51710;38.732;-121.358;2022-09-28T03:18:40;4.60;;;1.20;;
64966;SDS011;51710;38.732;-121.358;2022-09-28T03:21:08;3.70;;;1.40;;
64966;SDS011;51710;38.732;-121.358;2022-09-28T03:23:37;2.05;;;1.20;;
64966;SDS011;51710;38.732;-121.358;2022-09-28T03:26:03;2.78;;;1.27;;
64966;SDS011;51710;38.732;-121.358;2022-09-28T03:28:30;2.72;;;1.30;;
64966;SDS011;51710;38.732;-121.358;2022-09-28T03:30:56;2.10;;;1.40;;
64966;SDS011;51710;38.732;-121.358;2022-09-28T03:33:22;3.35;;;1.50;;
64966;SDS011;51710;38.732;-121.358;2022-09-28T03:35:49;2.45;;;1.38;;
64966;SDS011;51710;38.732;-121.358;2022-09-28T03:38:16;2.60;;;1.20;;
64966;SDS011;51710;38.732;-121.358;2022-09-28T03:40:43;4.43;;;1.67;;
64966;SDS011;51710;38.732;-121.358;2022-09-28T03:45:43;3.10;;;1.30;;
64966;SDS011;51710;38.732;-121.358;2022-09-28T03:48:23;4.22;;;1.33;;
64966;SDS011;51710;38.732;-121.358;2022-09-28T03:50:51;3.33;;;1.15;;
64966;SDS011;51710;38.732;-121.358;2022-09-28T03:53:19;2.90;;;1.35;;
64966;SDS011;51710;38.732;-121.358;2022-09-28T03:55:45;2.05;;;1.30;;
64966;SDS011;51710;38.732;-121.358;2022-09-28T03:58:12;3.00;;;1.63;;
64966;SDS011;51710;38.732;-121.358;2022-09-28T04:00:38;3.40;;;1.27;;
64966;SDS011;51710;38.732;-121.358;2022-09-28T04:03:05;2.58;;;1.35;;
64966;SDS011;51710;38.732;-121.358;2022-09-28T04:05:32;2.35;;;1.38;;
64966;SDS011;51710;38.732;-121.358;2022-09-28T04:07:59;4.72;;;1.40;;
64966;SDS011;51710;38.732;-121.358;2022-09-28T04:10:25;2.47;;;1.80;;
64966;SDS011;51710;38.732;-121.358;2022-09-28T04:12:55;2.90;;;1.38;;
64966;SDS011;51710;38.732;-121.358;2022-09-28T04:15:22;3.42;;;1.60;;
64966;SDS011;51710;38.732;-121.358;2022-09-28T04:17:50;2.72;;;1.42;;
64966;SDS011;51710;38.732;-121.358;2022-09-28T04:20:17;4.22;;;1.83;;
64966;SDS011;51710;38.732;-121.358;2022-09-28T04:22:43;5.32;;;1.90;;
64966;SDS011;51710;38.732;-121.358;2022-09-28T04:25:09;3.05;;;1.50;;
64966;SDS011;51710;38.732;-121.358;2022-09-28T04:27:36;3.63;;;1.77;;
64966;SDS011;51710;38.732;-121.358;2022-09-28T04:30:20;2.97;;;1.42;;
64966;SDS011;51710;38.732;-121.358;2022-09-28T04:32:47;4.28;;;1.75;;
64966;SDS011;51710;38.732;-121.358;2022-09-28T04:35:14;3.53;;;1.65;;
64966;SDS011;51710;38.732;-121.358;2022-09-28T04:37:40;5.57;;;1.67;;
64966;SDS011;51710;38.732;-121.358;2022-09-28T04:40:07;2.55;;;1.63;;
64966;SDS011;51710;38.732;-121.358;2022-09-28T04:42:34;2.22;;;1.30;;
64966;SDS011;51710;38.732;-121.358;2022-09-28T04:45:01;2.88;;;1.58;;
64966;SDS011;51710;38.732;-121.358;2022-09-28T04:47:29;2.70;;;1.55;;
64966;SDS011;51710;38.732;-121.358;2022-09-28T04:49:55;4.47;;;1.50;;
64966;SDS011;51710;38.732;-121.358;2022-09-28T04:52:22;4.15;;;1.85;;
64966;SDS011;51710;38.732;-121.358;2022-09-28T04:54:48;3.28;;;1.50;;
64966;SDS011;51710;38.732;-121.358;2022-09-28T04:57:14;4.28;;;1.80;;
64966;SDS011;51710;38.732;-121.358;2022-09-28T04:59:41;4.00;;;1.38;;
64966;SDS011;51710;38.732;-121.358;2022-09-28T05:02:07;3.80;;;1.73;;
64966;SDS011;51710;38.732;-121.358;2022-09-28T05:04:33;6.80;;;1.63;;
64966;SDS011;51710;38.732;-121.358;2022-09-28T05:07:00;5.10;;;1.80;;
64966;SDS011;51710;38.732;-121.358;2022-09-28T05:09:26;2.72;;;1.45;;
64966;SDS011;51710;38.732;-121.358;2022-09-28T05:11:53;6.88;;;2.15;;
64966;SDS011;51710;38.732;-121.358;2022-09-28T05:14:19;3.03;;;1.52;;
64966;SDS011;51710;38.732;-121.358;2022-09-28T05:16:48;4.03;;;1.90;;
64966;SDS011;51710;38.732;-121.358;2022-09-28T05:19:15;3.53;;;1.75;;
64966;SDS011;51710;38.732;-121.358;2022-09-28T05:21:44;5.85;;;1.95;;
64966;SDS011;51710;38.732;-121.358;2022-09-28T05:24:13;4.35;;;2.03;;
64966;SDS011;51710;38.732;-121.358;2022-09-28T05:26:39;4.55;;;1.90;;
64966;SDS011;51710;38.732;-121.358;2022-09-28T05:29:05;4.55;;;1.80;;
64966;SDS011;51710;38.732;-121.358;2022-09-28T05:31:32;3.58;;;2.20;;
64966;SDS011;51710;38.732;-121.358;2022-09-28T05:33:58;3.40;;;1.85;;
64966;SDS011;51710;38.732;-121.358;2022-09-28T05:36:24;5.18;;;1.90;;
64966;SDS011;51710;38.732;-121.358;2022-09-28T05:38:52;4.05;;;1.90;;
64966;SDS011;51710;38.732;-121.358;2022-09-28T05:41:18;3.58;;;1.55;;
64966;SDS011;51710;38.732;-121.358;2022-09-28T05:43:45;5.75;;;2.13;;
64966;SDS011;51710;38.732;-121.358;2022-09-28T05:46:12;3.70;;;1.65;;
64966;SDS011;51710;38.732;-121.358;2022-09-28T05:48:38;5.28;;;2.08;;
64966;SDS011;51710;38.732;-121.358;2022-09-28T05:51:05;4.95;;;1.85;;
64966;SDS011;51710;38.732;-121.358;2022-09-28T05:53:31;4.38;;;2.20;;
64966;SDS011;51710;38.732;-121.358;2022-09-28T05:55:57;3.90;;;1.92;;
64966;SDS011;51710;38.732;-121.358;2022-09-28T05:58:24;4.85;;;1.77;;
64966;SDS011;51710;38.732;-121.358;2022-09-28T06:00:54;3.15;;;1.60;;
64966;SDS011;51710;38.732;-121.358;2022-09-28T06:03:21;4.95;;;1.65;;
64966;SDS011;51710;38.732;-121.358;2022-09-28T06:05:47;5.35;;;1.75;;
64966;SDS011;51710;38.732;-121.358;2022-09-28T06:08:13;2.70;;;1.60;;
64966;SDS011;51710;38.732;-121.358;2022-09-28T06:10:40;4.25;;;2.08;;
64966;SDS011;51710;38.732;-121.358;2022-09-28T06:13:06;3.42;;;1.70;;
64966;SDS011;51710;38.732;-121.358;2022-09-28T06:15:35;6.25;;;1.85;;
64966;SDS011;51710;38.732;-121.358;2022-09-28T06:18:03;3.95;;;2.00;;
64966;SDS011;51710;38.732;-121.358;2022-09-28T06:20:32;3.25;;;1.52;;
64966;SDS011;51710;38.732;-121.358;2022-09-28T06:23:00;3.97;;;1.67;;
64966;SDS011;51710;38.732;-121.358;2022-09-28T06:25:27;2.63;;;1.50;;
64966;SDS011;51710;38.732;-121.358;2022-09-28T06:27:59;2.55;;;1.50;;
64966;SDS011;51710;38.732;-121.358;2022-09-28T06:30:28;3.45;;;1.63;;
64966;SDS011;51710;38.732;-121.358;2022-09-28T06:32:57;3.00;;;1.42;;
64966;SDS011;51710;38.732;-121.358;2022-09-28T06:35:24;2.92;;;1.90;;
64966;SDS011;51710;38.732;-121.358;2022-09-28T06:37:52;5.35;;;1.70;;
64966;SDS011;51710;38.732;-121.358;2022-09-28T06:40:19;3.83;;;1.80;;
64966;SDS011;51710;38.732;-121.358;2022-09-28T06:45:31;4.63;;;1.85;;
64966;SDS011;51710;38.732;-121.358;2022-09-28T06:47:58;3.05;;;1.58;;
64966;SDS011;51710;38.732;-121.358;2022-09-28T06:50:26;4.32;;;2.28;;
64966;SDS011;51710;38.732;-121.358;2022-09-28T06:52:57;4.93;;;1.90;;
64966;SDS011;51710;38.732;-121.358;2022-09-28T06:55:25;3.35;;;1.95;;
64966;SDS011;51710;38.732;-121.358;2022-09-28T06:57:59;3.50;;;1.75;;
64966;SDS011;51710;38.732;-121.358;2022-09-28T07:00:27;7.53;;;2.47;;
64966;SDS011;51710;38.732;-121.358;2022-09-28T07:03:01;4.63;;;1.88;;
64966;SDS011;51710;38.732;-121.358;2022-09-28T07:05:29;3.92;;;1.77;;
64966;SDS011;51710;38.732;-121.358;2022-09-28T07:07:59;3.20;;;1.60;;
64966;SDS011;51710;38.732;-121.358;2022-09-28T07:10:26;4.90;;;1.60;;
64966;SDS011;51710;38.732;-121.358;2022-09-28T07:12:54;5.18;;;1.65;;
64966;SDS011;51710;38.732;-121.358;2022-09-28T07:15:22;4.13;;;1.67;;
64966;SDS011;51710;38.732;-121.358;2022-09-28T07:17:49;3.85;;;1.80;;
64966;SDS011;51710;38.732;-121.358;2022-09-28T07:20:21;4.65;;;2.00;;
64966;SDS011;51710;38.732;-121.358;2022-09-28T07:22:52;3.47;;;1.95;;
64966;SDS011;51710;38.732;-121.358;2022-09-28T07:25:20;5.70;;;1.67;;
64966;SDS011;51710;38.732;-121.358;2022-09-28T07:27:47;2.67;;;1.40;;
64966;SDS011;51710;38.732;-121.358;2022-09-28T07:30:13;4.18;;;2.05;;
64966;SDS011;51710;38.732;-121.358;2022-09-28T07:32:41;3.15;;;1.83;;
64966;SDS011;51710;38.732;-121.358;2022-09-28T07:35:09;2.63;;;1.55;;
64966;SDS011;51710;38.732;-121.358;2022-09-28T07:37:36;3.65;;;1.85;;
64966;SDS011;51710;38.732;-121.358;2022-09-28T07:40:03;3.95;;;1.70;;
64966;SDS011;51710;38.732;-121.358;2022-09-28T07:42:49;3.90;;;1.75;;
64966;SDS011;51710;38.732;-121.358;2022-09-28T07:45:15;3.15;;;1.65;;
64966;SDS011;51710;38.732;-121.358;2022-09-28T07:47:42;2.90;;;1.40;;
64966;SDS011;51710;38.732;-121.358;2022-09-28T07:50:10;2.80;;;1.33;;
64966;SDS011;51710;38.732;-121.358;2022-09-28T07:52:36;3.75;;;2.00;;
64966;SDS011;51710;38.732;-121.358;2022-09-28T07:55:02;3.38;;;1.70;;
64966;SDS011;51710;38.732;-121.358;2022-09-28T07:57:29;2.55;;;1.45;;
64966;SDS011;51710;38.732;-121.358;2022-09-28T07:59:59;3.95;;;1.60;;
64966;SDS011;51710;38.732;-121.358;2022-09-28T08:02:26;3.53;;;1.95;;
64966;SDS011;51710;38.732;-121.358;2022-09-28T08:04:57;3.95;;;1.70;;
64966;SDS011;51710;38.732;-121.358;2022-09-28T08:07:24;3.42;;;1.55;;
64966;SDS011;51710;38.732;-121.358;2022-09-28T08:09:50;4.05;;;1.83;;
64966;SDS011;51710;38.732;-121.358;2022-09-28T08:12:17;3.53;;;1.95;;
64966;SDS011;51710;38.732;-121.358;2022-09-28T08:14:44;4.05;;;1.63;;
64966;SDS011;51710;38.732;-121.358;2022-09-28T08:17:10;5.85;;;1.55;;
64966;SDS011;51710;38.732;-121.358;2022-09-28T08:19:37;3.35;;;1.30;;
64966;SDS011;51710;38.732;-121.358;2022-09-28T08:24:47;2.30;;;1.70;;
64966;SDS011;51710;38.732;-121.358;2022-09-28T08:27:14;3.90;;;1.90;;
64966;SDS011;51710;38.732;-121.358;2022-09-28T08:29:42;4.05;;;1.88;;
64966;SDS011;51710;38.732;-121.358;2022-09-28T08:32:09;3.28;;;2.17;;
64966;SDS011;51710;38.732;-121.358;2022-09-28T08:34:36;4.15;;;2.33;;
64966;SDS011;51710;38.732;-121.358;2022-09-28T08:37:04;2.58;;;1.52;;
64966;SDS011;51710;38.732;-121.358;2022-09-28T08:39:31;4.28;;;1.70;;
64966;SDS011;51710;38.732;-121.358;2022-09-28T08:42:02;5.53;;;2.15;;
64966;SDS011;51710;38.732;-121.358;2022-09-28T08:44:52;3.85;;;1.85;;
64966;SDS011;51710;38.732;-121.358;2022-09-28T08:47:58;4.68;;;2.15;;
64966;SDS011;51710;38.732;-121.358;2022-09-28T08:50:53;3.40;;;1.60;;
64966;SDS011;51710;38.732;-121.358;2022-09-28T08:56:38;3.95;;;1.80;;
64966;SDS011;51710;38.732;-121.358;2022-09-28T08:59:13;3.70;;;1.80;;
64966;SDS011;51710;38.732;-121.358;2022-09-28T09:04:15;4.07;;;1.98;;
64966;SDS011;51710;38.732;-121.358;2022-09-28T09:07:19;3.70;;;1.65;;
64966;SDS011;51710;38.732;-121.358;2022-09-28T09:15:25;4.30;;;1.65;;
64966;SDS011;51710;38.732;-121.358;2022-09-28T09:20:46;4.55;;;1.60;;
64966;SDS011;51710;38.732;-121.358;2022-09-28T09:23:18;4.47;;;1.95;;
64966;SDS011;51710;38.732;-121.358;2022-09-28T09:26:12;2.92;;;1.80;;
64966;SDS011;51710;38.732;-121.358;2022-09-28T09:46:16;5.95;;;2.20;;
64966;SDS011;51710;38.732;-121.358;2022-09-28T09:48:48;3.20;;;1.75;;
64966;SDS011;51710;38.732;-121.358;2022-09-28T09:51:40;3.63;;;1.95;;
64966;SDS011;51710;38.732;-121.358;2022-09-28T09:58:16;6.35;;;1.88;;
64966;SDS011;51710;38.732;-121.358;2022-09-28T10:00:18;4.63;;;1.75;;
64966;SDS011;51710;38.732;-121.358;2022-09-28T10:02:46;6.03;;;1.70;;
64966;SDS011;51710;38.732;-121.358;2022-09-28T10:05:18;3.22;;;1.77;;
64966;SDS011;51710;38.732;-121.358;2022-09-28T10:10:21;6.80;;;2.17;;
64966;SDS011;51710;38.732;-121.358;2022-09-28T10:12:52;4.03;;;1.90;;
64966;SDS011;51710;38.732;-121.358;2022-09-28T10:15:23;5.25;;;2.05;;
64966;SDS011;51710;38.732;-121.358;2022-09-28T10:17:52;3.30;;;1.55;;
64966;SDS011;51710;38.732;-121.358;2022-09-28T10:20:19;5.10;;;2.30;;
64966;SDS011;51710;38.732;-121.358;2022-09-28T10:22:48;4.13;;;2.20;;
64966;SDS011;51710;38.732;-121.358;2022-09-28T10:25:17;4.18;;;1.85;;
64966;SDS011;51710;38.732;-121.358;2022-09-28T10:27:45;3.63;;;1.95;;
64966;SDS011;51710;38.732;-121.358;2022-09-28T10:30:21;4.07;;;1.90;;
64966;SDS011;51710;38.732;-121.358;2022-09-28T10:32:49;4.10;;;1.92;;
64966;SDS011;51710;38.732;-121.358;2022-09-28T10:38:13;6.03;;;2.08;;
64966;SDS011;51710;38.732;-121.358;2022-09-28T10:40:45;8.50;;;2.22;;
64966;SDS011;51710;38.732;-121.358;2022-09-28T10:43:38;3.58;;;2.00;;
64966;SDS011;51710;38.732;-121.358;2022-09-28T10:46:37;3.83;;;1.70;;
64966;SDS011;51710;38.732;-121.358;2022-09-28T10:49:05;3.72;;;1.90;;
64966;SDS011;51710;38.732;-121.358;2022-09-28T10:51:47;3.10;;;1.80;;
64966;SDS011;51710;38.732;-121.358;2022-09-28T10:54:17;3.42;;;2.00;;
64966;SDS011;51710;38.732;-121.358;2022-09-28T10:56:45;4.45;;;2.10;;
64966;SDS011;51710;38.732;-121.358;2022-09-28T11:04:49;3.22;;;2.20;;
64966;SDS011;51710;38.732;-121.358;2022-09-28T11:07:19;2.72;;;1.80;;
64966;SDS011;51710;38.732;-121.358;2022-09-28T11:09:49;4.60;;;1.92;;
64966;SDS011;51710;38.732;-121.358;2022-09-28T11:12:21;4.78;;;1.83;;
64966;SDS011;51710;38.732;-121.358;2022-09-28T11:15:00;4.38;;;1.67;;
64966;SDS011;51710;38.732;-121.358;2022-09-28T11:17:31;3.15;;;2.03;;
64966;SDS011;51710;38.732;-121.358;2022-09-28T11:22:51;5.53;;;2.03;;
64966;SDS011;51710;38.732;-121.358;2022-09-28T11:25:26;3.83;;;2.10;;
64966;SDS011;51710;38.732;-121.358;2022-09-28T11:28:00;7.47;;;2.10;;
64966;SDS011;51710;38.732;-121.358;2022-09-28T11:33:10;5.47;;;2.17;;
64966;SDS011;51710;38.732;-121.358;2022-09-28T11:38:29;4.95;;;1.67;;
64966;SDS011;51710;38.732;-121.358;2022-09-28T11:46:43;3.60;;;1.77;;
64966;SDS011;51710;38.732;-121.358;2022-09-28T11:49:29;5.93;;;2.70;;
64966;SDS011;51710;38.732;-121.358;2022-09-28T11:52:00;5.90;;;2.03;;
64966;SDS011;51710;38.732;-121.358;2022-09-28T11:54:39;4.25;;;2.17;;
64966;SDS011;51710;38.732;-121.358;2022-09-28T11:57:20;5.90;;;2.30;;
64966;SDS011;51710;38.732;-121.358;2022-09-28T12:05:38;3.33;;;1.90;;
64966;SDS011;51710;38.732;-121.358;2022-09-28T12:13:31;4.55;;;2.17;;
64966;SDS011;51710;38.732;-121.358;2022-09-28T12:16:03;5.15;;;1.83;;
64966;SDS011;51710;38.732;-121.358;2022-09-28T12:21:50;5.28;;;2.05;;
64966;SDS011;51710;38.732;-121.358;2022-09-28T12:30:24;6.28;;;2.05;;
64966;SDS011;51710;38.732;-121.358;2022-09-28T12:32:40;4.47;;;1.73;;
64966;SDS011;51710;38.732;-121.358;2022-09-28T12:35:22;4.97;;;2.15;;
64966;SDS011;51710;38.732;-121.358;2022-09-28T12:47:20;5.50;;;1.63;;
64966;SDS011;51710;38.732;-121.358;2022-09-28T12:52:49;4.78;;;1.58;;
64966;SDS011;51710;38.732;-121.358;2022-09-28T12:55:45;4.47;;;2.20;;
64966;SDS011;51710;38.732;-121.358;2022-09-28T13:01:24;6.85;;;2.05;;
64966;SDS011;51710;38.732;-121.358;2022-09-28T13:04:00;4.25;;;2.20;;
64966;SDS011;51710;38.732;-121.358;2022-09-28T13:06:50;4.07;;;1.80;;
64966;SDS011;51710;38.732;-121.358;2022-09-28T13:17:46;4.38;;;1.98;;
64966;SDS011;51710;38.732;-121.358;2022-09-28T13:23:03;3.38;;;1.80;;
64966;SDS011;51710;38.732;-121.358;2022-09-28T13:25:35;3.40;;;1.80;;
64966;SDS011;51710;38.732;-121.358;2022-09-28T13:28:05;7.68;;;2.00;;
64966;SDS011;51710;38.732;-121.358;2022-09-28T13:30:33;6.20;;;1.90;;
64966;SDS011;51710;38.732;-121.358;2022-09-28T13:33:04;4.57;;;2.03;;
64966;SDS011;51710;38.732;-121.358;2022-09-28T13:35:33;4.00;;;1.90;;
64966;SDS011;51710;38.732;-121.358;2022-09-28T13:46:07;3.72;;;1.88;;
64966;SDS011;51710;38.732;-121.358;2022-09-28T13:48:47;5.65;;;2.22;;
64966;SDS011;51710;38.732;-121.358;2022-09-28T13:51:25;4.53;;;2.00;;
64966;SDS011;51710;38.732;-121.358;2022-09-28T13:54:13;6.50;;;1.88;;
64966;SDS011;51710;38.732;-121.358;2022-09-28T13:56:48;7.28;;;2.05;;
64966;SDS011;51710;38.732;-121.358;2022-09-28T13:59:46;8.60;;;2.10;;
64966;SDS011;51710;38.732;-121.358;2022-09-28T14:02:30;4.40;;;2.00;;
64966;SDS011;51710;38.732;-121.358;2022-09-28T14:08:32;8.57;;;2.40;;
64966;SDS011;51710;38.732;-121.358;2022-09-28T14:13:58;6.10;;;2.42;;
64966;SDS011;51710;38.732;-121.358;2022-09-28T14:16:25;4.60;;;1.98;;
64966;SDS011;51710;38.732;-121.358;2022-09-28T14:24:58;4.88;;;2.10;;
64966;SDS011;51710;38.732;-121.358;2022-09-28T14:27:58;5.18;;;2.20;;
64966;SDS011;51710;38.732;-121.358;2022-09-28T14:33:33;5.43;;;1.98;;
64966;SDS011;51710;38.732;-121.358;2022-09-28T14:36:06;3.25;;;1.58;;
64966;SDS011;51710;38.732;-121.358;2022-09-28T14:39:21;6.13;;;2.30;;
64966;SDS011;51710;38.732;-121.358;2022-09-28T14:41:55;8.23;;;2.30;;
64966;SDS011;51710;38.732;-121.358;2022-09-28T14:44:41;5.25;;;2.10;;
64966;SDS011;51710;38.732;-121.358;2022-09-28T14:50:28;6.07;;;2.33;;
64966;SDS011;51710;38.732;-121.358;2022-09-28T14:53:17;4.85;;;2.00;;
64966;SDS011;51710;38.732;-121.358;2022-09-28T14:55:47;4.13;;;1.90;;
64966;SDS011;51710;38.732;-121.358;2022-09-28T14:58:20;6.13;;;2.28;;
64966;SDS011;51710;38.732;-121.358;2022-09-28T15:01:11;6.97;;;2.10;;
64966;SDS011;51710;38.732;-121.358;2022-09-28T15:03:50;5.53;;;2.00;;
64966;SDS011;51710;38.732;-121.358;2022-09-28T15:06:22;4.07;;;2.20;;
64966;SDS011;51710;38.732;-121.358;2022-09-28T15:08:51;3.80;;;2.33;;
64966;SDS011;51710;38.732;-121.358;2022-09-28T15:11:21;5.07;;;1.95;;
64966;SDS011;51710;38.732;-121.358;2022-09-28T15:13:49;4.50;;;2.00;;
64966;SDS011;51710;38.732;-121.358;2022-09-28T15:16:29;5.32;;;2.53;;
64966;SDS011;51710;38.732;-121.358;2022-09-28T15:21:35;5.47;;;2.17;;
64966;SDS011;51710;38.732;-121.358;2022-09-28T15:24:26;5.38;;;2.15;;
64966;SDS011;51710;38.732;-121.358;2022-09-28T15:26:58;6.82;;;2.35;;
64966;SDS011;51710;38.732;-121.358;2022-09-28T15:29:26;6.65;;;2.70;;
64966;SDS011;51710;38.732;-121.358;2022-09-28T15:31:56;5.10;;;1.92;;
64966;SDS011;51710;38.732;-121.358;2022-09-28T15:34:27;7.93;;;2.10;;
64966;SDS011;51710;38.732;-121.358;2022-09-28T15:37:20;3.90;;;2.05;;
64966;SDS011;51710;38.732;-121.358;2022-09-28T15:39:56;3.75;;;1.88;;
64966;SDS011;51710;38.732;-121.358;2022-09-28T15:42:24;4.22;;;1.98;;
64966;SDS011;51710;38.732;-121.358;2022-09-28T15:47:27;4.82;;;1.70;;
64966;SDS011;51710;38.732;-121.358;2022-09-28T15:49:57;4.43;;;1.83;;
64966;SDS011;51710;38.732;-121.358;2022-09-28T15:53:01;3.45;;;1.63;;
64966;SDS011;51710;38.732;-121.358;2022-09-28T15:55:36;8.48;;;2.00;;
64966;SDS011;51710;38.732;-121.358;2022-09-28T15:58:13;5.95;;;1.75;;
64966;SDS011;51710;38.732;-121.358;2022-09-28T16:00:43;3.03;;;1.88;;
64966;SDS011;51710;38.732;-121.358;2022-09-28T16:05:41;3.15;;;1.73;;
64966;SDS011;51710;38.732;-121.358;2022-09-28T16:08:41;3.40;;;1.80;;
64966;SDS011;51710;38.732;-121.358;2022-09-28T16:11:18;4.32;;;1.70;;
64966;SDS011;51710;38.732;-121.358;2022-09-28T16:16:44;2.80;;;1.70;;
64966;SDS011;51710;38.732;-121.358;2022-09-28T16:19:22;5.20;;;1.67;;
64966;SDS011;51710;38.732;-121.358;2022-09-28T16:21:53;4.95;;;1.77;;
64966;SDS011;51710;38.732;-121.358;2022-09-28T16:24:25;4.78;;;2.00;;
64966;SDS011;51710;38.732;-121.358;2022-09-28T16:27:01;4.53;;;1.77;;
64966;SDS011;51710;38.732;-121.358;2022-09-28T16:30:02;4.47;;;1.85;;
64966;SDS011;51710;38.732;-121.358;2022-09-28T16:36:07;5.30;;;2.78;;
64966;SDS011;51710;38.732;-121.358;2022-09-28T16:38:12;2.33;;;1.65;;
64966;SDS011;51710;38.732;-121.358;2022-09-28T16:40:40;2.35;;;1.48;;
64966;SDS011;51710;38.732;-121.358;2022-09-28T16:43:22;3.00;;;1.58;;
64966;SDS011;51710;38.732;-121.358;2022-09-28T16:45:53;2.42;;;1.52;;
64966;SDS011;51710;38.732;-121.358;2022-09-28T16:48:25;4.35;;;1.83;;
64966;SDS011;51710;38.732;-121.358;2022-09-28T16:50:53;4.93;;;1.92;;
64966;SDS011;51710;38.732;-121.358;2022-09-28T16:53:20;5.05;;;1.75;;
64966;SDS011;51710;38.732;-121.358;2022-09-28T16:58:31;3.50;;;1.70;;
64966;SDS011;51710;38.732;-121.358;2022-09-28T17:00:58;4.78;;;1.50;;
64966;SDS011;51710;38.732;-121.358;2022-09-28T17:03:26;3.95;;;1.90;;
64966;SDS011;51710;38.732;-121.358;2022-09-28T17:05:53;3.03;;;1.55;;
64966;SDS011;51710;38.732;-121.358;2022-09-28T17:08:20;4.55;;;1.45;;
64966;SDS011;51710;38.732;-121.358;2022-09-28T17:10:53;2.60;;;2.03;;
64966;SDS011;51710;38.732;-121.358;2022-09-28T17:13:20;4.40;;;1.50;;
64966;SDS011;51710;38.732;-121.358;2022-09-28T17:15:58;3.00;;;1.33;;
64966;SDS011;51710;38.732;-121.358;2022-09-28T17:18:26;3.38;;;1.38;;
64966;SDS011;51710;38.732;-121.358;2022-09-28T17:20:56;2.08;;;1.27;;
64966;SDS011;51710;38.732;-121.358;2022-09-28T17:23:27;5.22;;;1.33;;
64966;SDS011;51710;38.732;-121.358;2022-09-28T17:25:54;5.57;;;1.60;;
64966;SDS011;51710;38.732;-121.358;2022-09-28T17:28:22;4.10;;;1.55;;
64966;SDS011;51710;38.732;-121.358;2022-09-28T17:30:54;3.92;;;1.55;;
64966;SDS011;51710;38.732;-121.358;2022-09-28T17:33:21;3.53;;;1.55;;
64966;SDS011;51710;38.732;-121.358;2022-09-28T17:35:47;2.88;;;1.40;;
64966;SDS011;51710;38.732;-121.358;2022-09-28T17:38:17;2.42;;;1.50;;
64966;SDS011;51710;38.732;-121.358;2022-09-28T17:40:43;2.45;;;1.40;;
64966;SDS011;51710;38.732;-121.358;2022-09-28T17:43:12;4.55;;;1.50;;
64966;SDS011;51710;38.732;-121.358;2022-09-28T17:45:39;3.92;;;1.50;;
64966;SDS011;51710;38.732;-121.358;2022-09-28T17:48:06;3.42;;;1.42;;
64966;SDS011;51710;38.732;-121.358;2022-09-28T17:53:07;4.25;;;1.50;;
64966;SDS011;51710;38.732;-121.358;2022-09-28T17:55:34;5.70;;;2.58;;